sensor_id;sensor_type;location;lat;lon;timestamp;P1;durP1;ratioP1;P2;durP2;ratioP2
20290;SDS011;10304;51.074;13.754;2023-04-24T00:01:04;6.40;;;4.47;;
20290;SDS011;10304;51.074;13.754;2023-04-24T00:03:33;5.53;;;4.15;;
20290;SDS011;10304;51.074;13.754;2023-04-24T00:06:00;4.75;;;4.10;;
20290;SDS011;10304;51.074;13.754;2023-04-24T00:08:28;4.20;;;3.80;;
20290;SDS011;10304;51.074;13.754;2023-04-24T00:10:55;4.65;;;3.45;;
20290;SDS011;10304;51.074;13.754;2023-04-24T00:13:22;6.68;;;3.50;;
20290;SDS011;10304;51.074;13.754;2023-04-24T00:15:49;4.40;;;3.70;;
20290;SDS011;10304;51.074;13.754;2023-04-24T00:18:15;5.95;;;3.67;;
20290;SDS011;10304;51.074;13.754;2023-04-24T00:20:42;5.20;;;4.07;;
20290;SDS011;10304;51.074;13.754;2023-04-24T00:23:10;5.25;;;4.18;;
20290;SDS011;10304;51.074;13.754;2023-04-24T00:25:36;5.78;;;4.05;;
20290;SDS011;10304;51.074;13.754;2023-04-24T00:28:03;6.15;;;4.35;;
20290;SDS011;10304;51.074;13.754;2023-04-24T00:30:30;5.32;;;3.97;;
20290;SDS011;10304;51.074;13.754;2023-04-24T00:32:57;4.50;;;3.60;;
20290;SDS011;10304;51.074;13.754;2023-04-24T00:35:24;4.57;;;3.60;;
20290;SDS011;10304;51.074;13.754;2023-04-24T00:37:50;5.85;;;4.28;;
20290;SDS011;10304;51.074;13.754;2023-04-24T00:40:17;5.90;;;3.72;;
20290;SDS011;10304;51.074;13.754;2023-04-24T00:42:44;6.13;;;4.47;;
20290;SDS011;10304;51.074;13.754;2023-04-24T00:45:11;4.95;;;4.18;;
20290;SDS011;10304;51.074;13.754;2023-04-24T00:47:39;5.28;;;4.47;;
20290;SDS011;10304;51.074;13.754;2023-04-24T00:50:08;5.88;;;4.15;;
20290;SDS011;10304;51.074;13.754;2023-04-24T00:52:35;5.20;;;3.80;;
20290;SDS011;10304;51.074;13.754;2023-04-24T00:55:02;7.03;;;4.20;;
20290;SDS011;10304;51.074;13.754;2023-04-24T00:57:29;7.15;;;4.25;;
20290;SDS011;10304;51.074;13.754;2023-04-24T00:59:56;5.68;;;3.85;;
20290;SDS011;10304;51.074;13.754;2023-04-24T01:02:23;4.95;;;4.07;;
20290;SDS011;10304;51.074;13.754;2023-04-24T01:04:52;5.82;;;4.13;;
20290;SDS011;10304;51.074;13.754;2023-04-24T01:07:19;4.47;;;3.95;;
20290;SDS011;10304;51.074;13.754;2023-04-24T01:09:47;5.30;;;4.13;;
20290;SDS011;10304;51.074;13.754;2023-04-24T01:12:17;5.43;;;4.10;;
20290;SDS011;10304;51.074;13.754;2023-04-24T01:14:44;4.78;;;3.88;;
20290;SDS011;10304;51.074;13.754;2023-04-24T01:17:11;4.45;;;3.70;;
20290;SDS011;10304;51.074;13.754;2023-04-24T01:19:38;4.32;;;3.80;;
20290;SDS011;10304;51.074;13.754;2023-04-24T01:22:10;5.60;;;3.92;;
20290;SDS011;10304;51.074;13.754;2023-04-24T01:24:38;4.22;;;3.83;;
20290;SDS011;10304;51.074;13.754;2023-04-24T01:27:05;5.40;;;3.63;;
20290;SDS011;10304;51.074;13.754;2023-04-24T01:29:32;5.10;;;3.83;;
20290;SDS011;10304;51.074;13.754;2023-04-24T01:32:00;5.25;;;4.00;;
20290;SDS011;10304;51.074;13.754;2023-04-24T01:34:27;5.78;;;4.35;;
20290;SDS011;10304;51.074;13.754;2023-04-24T01:36:54;5.03;;;4.00;;
20290;SDS011;10304;51.074;13.754;2023-04-24T01:39:21;6.53;;;4.22;;
20290;SDS011;10304;51.074;13.754;2023-04-24T01:41:49;7.13;;;4.30;;
20290;SDS011;10304;51.074;13.754;2023-04-24T01:44:16;6.85;;;4.10;;
20290;SDS011;10304;51.074;13.754;2023-04-24T01:46:44;7.20;;;4.15;;
20290;SDS011;10304;51.074;13.754;2023-04-24T01:49:11;5.95;;;4.60;;
20290;SDS011;10304;51.074;13.754;2023-04-24T01:51:38;6.70;;;4.50;;
20290;SDS011;10304;51.074;13.754;2023-04-24T01:54:04;6.30;;;4.07;;
20290;SDS011;10304;51.074;13.754;2023-04-24T01:56:33;5.65;;;4.32;;
20290;SDS011;10304;51.074;13.754;2023-04-24T01:59:03;5.15;;;4.65;;
20290;SDS011;10304;51.074;13.754;2023-04-24T02:01:36;6.00;;;4.70;;
20290;SDS011;10304;51.074;13.754;2023-04-24T02:04:04;5.13;;;4.28;;
20290;SDS011;10304;51.074;13.754;2023-04-24T02:06:32;5.05;;;4.10;;
20290;SDS011;10304;51.074;13.754;2023-04-24T02:08:59;4.47;;;3.78;;
20290;SDS011;10304;51.074;13.754;2023-04-24T02:11:26;6.20;;;4.38;;
20290;SDS011;10304;51.074;13.754;2023-04-24T02:13:53;6.53;;;5.13;;
20290;SDS011;10304;51.074;13.754;2023-04-24T02:16:19;3.60;;;3.15;;
20290;SDS011;10304;51.074;13.754;2023-04-24T02:18:46;4.15;;;3.67;;
20290;SDS011;10304;51.074;13.754;2023-04-24T02:21:13;4.40;;;4.00;;
20290;SDS011;10304;51.074;13.754;2023-04-24T02:23:39;4.75;;;4.25;;
20290;SDS011;10304;51.074;13.754;2023-04-24T02:26:06;5.75;;;4.40;;
20290;SDS011;10304;51.074;13.754;2023-04-24T02:28:33;5.47;;;4.10;;
20290;SDS011;10304;51.074;13.754;2023-04-24T02:31:00;4.43;;;4.03;;
20290;SDS011;10304;51.074;13.754;2023-04-24T02:33:26;4.75;;;4.15;;
20290;SDS011;10304;51.074;13.754;2023-04-24T02:35:53;5.00;;;4.20;;
20290;SDS011;10304;51.074;13.754;2023-04-24T02:38:20;5.72;;;4.47;;
20290;SDS011;10304;51.074;13.754;2023-04-24T02:40:46;6.90;;;4.53;;
20290;SDS011;10304;51.074;13.754;2023-04-24T02:43:13;5.45;;;4.93;;
20290;SDS011;10304;51.074;13.754;2023-04-24T02:45:40;5.90;;;4.20;;
20290;SDS011;10304;51.074;13.754;2023-04-24T02:48:06;6.45;;;4.43;;
20290;SDS011;10304;51.074;13.754;2023-04-24T02:50:33;7.72;;;4.70;;
20290;SDS011;10304;51.074;13.754;2023-04-24T02:53:00;6.93;;;4.40;;
20290;SDS011;10304;51.074;13.754;2023-04-24T02:55:26;5.53;;;4.30;;
20290;SDS011;10304;51.074;13.754;2023-04-24T02:57:53;5.60;;;4.70;;
20290;SDS011;10304;51.074;13.754;2023-04-24T03:00:19;5.72;;;3.47;;
20290;SDS011;10304;51.074;13.754;2023-04-24T03:02:46;7.40;;;4.47;;
20290;SDS011;10304;51.074;13.754;2023-04-24T03:05:13;6.40;;;4.60;;
20290;SDS011;10304;51.074;13.754;2023-04-24T03:07:40;6.32;;;4.97;;
20290;SDS011;10304;51.074;13.754;2023-04-24T03:10:07;6.07;;;5.00;;
20290;SDS011;10304;51.074;13.754;2023-04-24T03:12:34;5.32;;;4.30;;
20290;SDS011;10304;51.074;13.754;2023-04-24T03:15:01;4.70;;;3.90;;
20290;SDS011;10304;51.074;13.754;2023-04-24T03:17:27;5.22;;;4.15;;
20290;SDS011;10304;51.074;13.754;2023-04-24T03:19:54;7.32;;;4.35;;
20290;SDS011;10304;51.074;13.754;2023-04-24T03:22:21;4.47;;;4.07;;
20290;SDS011;10304;51.074;13.754;2023-04-24T03:24:47;5.15;;;4.40;;
20290;SDS011;10304;51.074;13.754;2023-04-24T03:27:14;4.13;;;3.50;;
20290;SDS011;10304;51.074;13.754;2023-04-24T03:29:41;4.85;;;4.20;;
20290;SDS011;10304;51.074;13.754;2023-04-24T03:32:08;6.38;;;4.45;;
20290;SDS011;10304;51.074;13.754;2023-04-24T03:34:34;7.20;;;4.40;;
20290;SDS011;10304;51.074;13.754;2023-04-24T03:37:01;5.18;;;4.53;;
20290;SDS011;10304;51.074;13.754;2023-04-24T03:39:27;8.07;;;4.10;;
20290;SDS011;10304;51.074;13.754;2023-04-24T03:41:54;5.05;;;4.55;;
20290;SDS011;10304;51.074;13.754;2023-04-24T03:44:21;5.15;;;4.35;;
20290;SDS011;10304;51.074;13.754;2023-04-24T03:46:48;4.60;;;4.10;;
20290;SDS011;10304;51.074;13.754;2023-04-24T03:49:15;5.50;;;4.63;;
20290;SDS011;10304;51.074;13.754;2023-04-24T03:51:42;6.50;;;4.45;;
20290;SDS011;10304;51.074;13.754;2023-04-24T03:54:08;9.15;;;4.90;;
20290;SDS011;10304;51.074;13.754;2023-04-24T03:56:35;4.80;;;4.30;;
20290;SDS011;10304;51.074;13.754;2023-04-24T03:59:02;5.53;;;4.88;;
20290;SDS011;10304;51.074;13.754;2023-04-24T04:01:28;4.72;;;3.53;;
20290;SDS011;10304;51.074;13.754;2023-04-24T04:03:56;4.13;;;3.47;;
20290;SDS011;10304;51.074;13.754;2023-04-24T04:06:23;6.15;;;3.78;;
20290;SDS011;10304;51.074;13.754;2023-04-24T04:08:50;6.15;;;3.30;;
20290;SDS011;10304;51.074;13.754;2023-04-24T04:11:16;4.43;;;3.33;;
20290;SDS011;10304;51.074;13.754;2023-04-24T04:13:43;4.18;;;2.90;;
20290;SDS011;10304;51.074;13.754;2023-04-24T04:16:10;4.82;;;3.40;;
20290;SDS011;10304;51.074;13.754;2023-04-24T04:18:37;3.78;;;2.63;;
20290;SDS011;10304;51.074;13.754;2023-04-24T04:21:03;3.05;;;2.40;;
20290;SDS011;10304;51.074;13.754;2023-04-24T04:23:30;2.53;;;2.33;;
20290;SDS011;10304;51.074;13.754;2023-04-24T04:25:58;2.30;;;1.58;;
20290;SDS011;10304;51.074;13.754;2023-04-24T04:28:24;43.85;;;2.47;;
20290;SDS011;10304;51.074;13.754;2023-04-24T04:30:52;2.90;;;1.52;;
20290;SDS011;10304;51.074;13.754;2023-04-24T04:33:20;2.72;;;1.30;;
20290;SDS011;10304;51.074;13.754;2023-04-24T04:35:47;1.95;;;1.30;;
20290;SDS011;10304;51.074;13.754;2023-04-24T04:38:22;2.22;;;1.00;;
20290;SDS011;10304;51.074;13.754;2023-04-24T04:40:49;1.23;;;0.90;;
20290;SDS011;10304;51.074;13.754;2023-04-24T04:43:16;2.25;;;1.17;;
20290;SDS011;10304;51.074;13.754;2023-04-24T04:45:43;1.83;;;0.90;;
20290;SDS011;10304;51.074;13.754;2023-04-24T04:48:11;1.58;;;1.10;;
20290;SDS011;10304;51.074;13.754;2023-04-24T04:50:39;2.28;;;1.10;;
20290;SDS011;10304;51.074;13.754;2023-04-24T04:53:06;2.28;;;1.00;;
20290;SDS011;10304;51.074;13.754;2023-04-24T04:55:33;2.20;;;1.02;;
20290;SDS011;10304;51.074;13.754;2023-04-24T04:57:59;3.83;;;0.90;;
20290;SDS011;10304;51.074;13.754;2023-04-24T05:00:27;3.83;;;1.23;;
20290;SDS011;10304;51.074;13.754;2023-04-24T05:02:55;2.80;;;1.25;;
20290;SDS011;10304;51.074;13.754;2023-04-24T05:05:38;1.42;;;0.73;;
20290;SDS011;10304;51.074;13.754;2023-04-24T05:08:07;1.48;;;0.80;;
20290;SDS011;10304;51.074;13.754;2023-04-24T05:10:51;3.10;;;0.90;;
20290;SDS011;10304;51.074;13.754;2023-04-24T05:13:17;1.67;;;1.20;;
20290;SDS011;10304;51.074;13.754;2023-04-24T05:15:57;2.88;;;1.42;;
20290;SDS011;10304;51.074;13.754;2023-04-24T05:18:24;3.42;;;1.88;;
20290;SDS011;10304;51.074;13.754;2023-04-24T05:20:50;5.18;;;2.20;;
20290;SDS011;10304;51.074;13.754;2023-04-24T05:23:17;8.10;;;2.58;;
20290;SDS011;10304;51.074;13.754;2023-04-24T05:25:44;3.28;;;1.77;;
20290;SDS011;10304;51.074;13.754;2023-04-24T05:28:12;2.28;;;1.30;;
20290;SDS011;10304;51.074;13.754;2023-04-24T05:30:38;2.10;;;1.20;;
20290;SDS011;10304;51.074;13.754;2023-04-24T05:33:05;1.73;;;1.20;;
20290;SDS011;10304;51.074;13.754;2023-04-24T05:35:32;4.32;;;1.15;;
20290;SDS011;10304;51.074;13.754;2023-04-24T05:37:59;2.95;;;1.20;;
20290;SDS011;10304;51.074;13.754;2023-04-24T05:40:26;5.45;;;0.90;;
20290;SDS011;10304;51.074;13.754;2023-04-24T05:42:52;5.72;;;0.98;;
20290;SDS011;10304;51.074;13.754;2023-04-24T05:45:19;2.28;;;1.00;;
20290;SDS011;10304;51.074;13.754;2023-04-24T05:47:46;3.35;;;1.05;;
20290;SDS011;10304;51.074;13.754;2023-04-24T05:50:13;2.33;;;1.15;;
20290;SDS011;10304;51.074;13.754;2023-04-24T05:52:39;1.95;;;0.90;;
20290;SDS011;10304;51.074;13.754;2023-04-24T05:55:06;2.95;;;1.23;;
20290;SDS011;10304;51.074;13.754;2023-04-24T05:57:33;4.88;;;1.25;;
20290;SDS011;10304;51.074;13.754;2023-04-24T06:00:00;4.25;;;1.35;;
20290;SDS011;10304;51.074;13.754;2023-04-24T06:02:27;2.63;;;1.00;;
20290;SDS011;10304;51.074;13.754;2023-04-24T06:04:55;2.20;;;0.80;;
20290;SDS011;10304;51.074;13.754;2023-04-24T06:07:22;2.60;;;1.13;;
20290;SDS011;10304;51.074;13.754;2023-04-24T06:09:49;3.50;;;1.30;;
20290;SDS011;10304;51.074;13.754;2023-04-24T06:12:15;3.47;;;1.10;;
20290;SDS011;10304;51.074;13.754;2023-04-24T06:14:42;2.88;;;1.27;;
20290;SDS011;10304;51.074;13.754;2023-04-24T06:17:08;3.38;;;1.73;;
20290;SDS011;10304;51.074;13.754;2023-04-24T06:19:35;4.28;;;1.70;;
20290;SDS011;10304;51.074;13.754;2023-04-24T06:22:02;1.83;;;0.90;;
20290;SDS011;10304;51.074;13.754;2023-04-24T06:24:28;2.13;;;1.05;;
20290;SDS011;10304;51.074;13.754;2023-04-24T06:26:55;1.67;;;1.00;;
20290;SDS011;10304;51.074;13.754;2023-04-24T06:29:25;1.20;;;0.70;;
20290;SDS011;10304;51.074;13.754;2023-04-24T06:31:51;2.65;;;1.10;;
20290;SDS011;10304;51.074;13.754;2023-04-24T06:34:18;2.45;;;0.88;;
20290;SDS011;10304;51.074;13.754;2023-04-24T06:36:46;1.98;;;0.98;;
20290;SDS011;10304;51.074;13.754;2023-04-24T06:39:13;1.60;;;0.80;;
20290;SDS011;10304;51.074;13.754;2023-04-24T06:41:39;1.88;;;0.70;;
20290;SDS011;10304;51.074;13.754;2023-04-24T06:44:06;3.95;;;1.00;;
20290;SDS011;10304;51.074;13.754;2023-04-24T06:46:33;2.00;;;0.82;;
20290;SDS011;10304;51.074;13.754;2023-04-24T06:49:00;4.28;;;1.50;;
20290;SDS011;10304;51.074;13.754;2023-04-24T06:51:27;5.95;;;1.50;;
20290;SDS011;10304;51.074;13.754;2023-04-24T06:53:53;4.07;;;1.60;;
20290;SDS011;10304;51.074;13.754;2023-04-24T06:56:22;2.05;;;0.90;;
20290;SDS011;10304;51.074;13.754;2023-04-24T06:58:48;3.05;;;1.50;;
20290;SDS011;10304;51.074;13.754;2023-04-24T07:01:17;2.85;;;1.00;;
20290;SDS011;10304;51.074;13.754;2023-04-24T07:03:44;3.50;;;0.73;;
20290;SDS011;10304;51.074;13.754;2023-04-24T07:06:11;1.48;;;0.70;;
20290;SDS011;10304;51.074;13.754;2023-04-24T07:08:38;3.63;;;0.82;;
20290;SDS011;10304;51.074;13.754;2023-04-24T07:11:05;3.08;;;0.82;;
20290;SDS011;10304;51.074;13.754;2023-04-24T07:13:32;1.90;;;0.70;;
20290;SDS011;10304;51.074;13.754;2023-04-24T07:16:01;2.65;;;1.20;;
20290;SDS011;10304;51.074;13.754;2023-04-24T07:18:28;1.45;;;0.50;;
20290;SDS011;10304;51.074;13.754;2023-04-24T07:20:55;2.95;;;1.10;;
20290;SDS011;10304;51.074;13.754;2023-04-24T07:23:22;1.80;;;0.80;;
20290;SDS011;10304;51.074;13.754;2023-04-24T07:25:49;2.42;;;0.90;;
20290;SDS011;10304;51.074;13.754;2023-04-24T07:28:16;2.10;;;1.10;;
20290;SDS011;10304;51.074;13.754;2023-04-24T07:30:44;2.25;;;0.80;;
20290;SDS011;10304;51.074;13.754;2023-04-24T07:33:10;2.90;;;0.77;;
20290;SDS011;10304;51.074;13.754;2023-04-24T07:35:39;0.88;;;0.60;;
20290;SDS011;10304;51.074;13.754;2023-04-24T07:38:06;1.55;;;0.80;;
20290;SDS011;10304;51.074;13.754;2023-04-24T07:40:32;1.20;;;0.80;;
20290;SDS011;10304;51.074;13.754;2023-04-24T07:42:59;1.02;;;0.50;;
20290;SDS011;10304;51.074;13.754;2023-04-24T07:45:26;1.35;;;0.60;;
20290;SDS011;10304;51.074;13.754;2023-04-24T07:47:54;2.30;;;0.57;;
20290;SDS011;10304;51.074;13.754;2023-04-24T07:50:20;0.77;;;0.65;;
20290;SDS011;10304;51.074;13.754;2023-04-24T07:52:48;1.85;;;0.70;;
20290;SDS011;10304;51.074;13.754;2023-04-24T07:55:14;1.00;;;0.52;;
20290;SDS011;10304;51.074;13.754;2023-04-24T07:57:41;3.38;;;0.80;;
20290;SDS011;10304;51.074;13.754;2023-04-24T08:00:08;3.40;;;1.00;;
20290;SDS011;10304;51.074;13.754;2023-04-24T08:02:36;2.67;;;0.70;;
20290;SDS011;10304;51.074;13.754;2023-04-24T08:05:03;2.83;;;0.60;;
20290;SDS011;10304;51.074;13.754;2023-04-24T08:07:30;2.30;;;0.65;;
20290;SDS011;10304;51.074;13.754;2023-04-24T08:09:57;2.35;;;0.70;;
20290;SDS011;10304;51.074;13.754;2023-04-24T08:12:25;2.90;;;0.60;;
20290;SDS011;10304;51.074;13.754;2023-04-24T08:14:54;1.20;;;0.60;;
20290;SDS011;10304;51.074;13.754;2023-04-24T08:17:21;2.22;;;0.80;;
20290;SDS011;10304;51.074;13.754;2023-04-24T08:19:48;0.93;;;0.60;;
20290;SDS011;10304;51.074;13.754;2023-04-24T08:22:15;1.52;;;0.50;;
20290;SDS011;10304;51.074;13.754;2023-04-24T08:24:41;1.75;;;0.60;;
20290;SDS011;10304;51.074;13.754;2023-04-24T08:27:08;2.38;;;0.77;;
20290;SDS011;10304;51.074;13.754;2023-04-24T08:29:35;3.08;;;0.70;;
20290;SDS011;10304;51.074;13.754;2023-04-24T08:32:02;3.72;;;0.60;;
20290;SDS011;10304;51.074;13.754;2023-04-24T08:34:29;2.30;;;0.80;;
20290;SDS011;10304;51.074;13.754;2023-04-24T08:36:56;4.82;;;0.88;;
20290;SDS011;10304;51.074;13.754;2023-04-24T08:39:22;6.88;;;0.55;;
20290;SDS011;10304;51.074;13.754;2023-04-24T08:41:49;2.38;;;0.80;;
20290;SDS011;10304;51.074;13.754;2023-04-24T08:44:18;3.15;;;0.90;;
20290;SDS011;10304;51.074;13.754;2023-04-24T08:46:46;2.03;;;0.57;;
20290;SDS011;10304;51.074;13.754;2023-04-24T08:49:15;4.25;;;0.90;;
20290;SDS011;10304;51.074;13.754;2023-04-24T08:51:42;1.88;;;0.93;;
20290;SDS011;10304;51.074;13.754;2023-04-24T08:54:11;3.60;;;0.70;;
20290;SDS011;10304;51.074;13.754;2023-04-24T08:56:38;1.23;;;0.70;;
20290;SDS011;10304;51.074;13.754;2023-04-24T08:59:06;1.25;;;0.75;;
20290;SDS011;10304;51.074;13.754;2023-04-24T09:01:33;1.73;;;0.70;;
20290;SDS011;10304;51.074;13.754;2023-04-24T09:04:03;1.10;;;0.70;;
20290;SDS011;10304;51.074;13.754;2023-04-24T09:06:32;3.13;;;0.90;;
20290;SDS011;10304;51.074;13.754;2023-04-24T09:09:00;2.17;;;0.70;;
20290;SDS011;10304;51.074;13.754;2023-04-24T09:11:29;1.80;;;0.82;;
20290;SDS011;10304;51.074;13.754;2023-04-24T09:13:59;0.98;;;0.55;;
20290;SDS011;10304;51.074;13.754;2023-04-24T09:16:26;1.25;;;0.55;;
20290;SDS011;10304;51.074;13.754;2023-04-24T09:18:54;2.50;;;0.70;;
20290;SDS011;10304;51.074;13.754;2023-04-24T09:21:22;1.17;;;0.57;;
20290;SDS011;10304;51.074;13.754;2023-04-24T09:23:59;1.23;;;0.57;;
20290;SDS011;10304;51.074;13.754;2023-04-24T09:26:29;3.05;;;0.73;;
20290;SDS011;10304;51.074;13.754;2023-04-24T09:29:00;2.53;;;0.80;;
20290;SDS011;10304;51.074;13.754;2023-04-24T09:31:28;3.03;;;0.65;;
20290;SDS011;10304;51.074;13.754;2023-04-24T09:34:00;4.35;;;0.70;;
20290;SDS011;10304;51.074;13.754;2023-04-24T09:36:41;1.27;;;0.63;;
20290;SDS011;10304;51.074;13.754;2023-04-24T09:39:10;2.42;;;0.80;;
20290;SDS011;10304;51.074;13.754;2023-04-24T09:41:54;1.02;;;0.60;;
20290;SDS011;10304;51.074;13.754;2023-04-24T09:44:24;1.25;;;0.60;;
20290;SDS011;10304;51.074;13.754;2023-04-24T09:46:53;2.88;;;0.82;;
20290;SDS011;10304;51.074;13.754;2023-04-24T09:49:28;3.00;;;0.85;;
20290;SDS011;10304;51.074;13.754;2023-04-24T09:52:07;1.70;;;0.60;;
20290;SDS011;10304;51.074;13.754;2023-04-24T09:54:36;6.30;;;0.90;;
20290;SDS011;10304;51.074;13.754;2023-04-24T09:57:04;1.05;;;0.88;;
20290;SDS011;10304;51.074;13.754;2023-04-24T09:59:34;1.10;;;0.70;;
20290;SDS011;10304;51.074;13.754;2023-04-24T10:02:02;1.73;;;0.70;;
20290;SDS011;10304;51.074;13.754;2023-04-24T10:04:41;1.58;;;0.50;;
20290;SDS011;10304;51.074;13.754;2023-04-24T10:07:22;1.35;;;0.70;;
20290;SDS011;10304;51.074;13.754;2023-04-24T10:09:52;0.73;;;0.70;;
20290;SDS011;10304;51.074;13.754;2023-04-24T10:12:19;4.90;;;0.70;;
20290;SDS011;10304;51.074;13.754;2023-04-24T10:14:48;3.10;;;0.70;;
20290;SDS011;10304;51.074;13.754;2023-04-24T10:17:15;1.42;;;0.90;;
20290;SDS011;10304;51.074;13.754;2023-04-24T10:19:43;1.75;;;0.50;;
20290;SDS011;10304;51.074;13.754;2023-04-24T10:22:11;0.73;;;0.68;;
20290;SDS011;10304;51.074;13.754;2023-04-24T10:24:38;1.35;;;0.50;;
20290;SDS011;10304;51.074;13.754;2023-04-24T10:27:05;1.70;;;0.60;;
20290;SDS011;10304;51.074;13.754;2023-04-24T10:29:33;4.05;;;0.80;;
20290;SDS011;10304;51.074;13.754;2023-04-24T10:32:02;1.48;;;0.77;;
20290;SDS011;10304;51.074;13.754;2023-04-24T10:34:28;1.35;;;0.57;;
20290;SDS011;10304;51.074;13.754;2023-04-24T10:36:55;0.75;;;0.40;;
20290;SDS011;10304;51.074;13.754;2023-04-24T10:39:23;1.77;;;0.80;;
20290;SDS011;10304;51.074;13.754;2023-04-24T10:41:53;0.52;;;0.52;;
20290;SDS011;10304;51.074;13.754;2023-04-24T10:44:22;2.92;;;0.65;;
20290;SDS011;10304;51.074;13.754;2023-04-24T10:46:52;0.80;;;0.50;;
20290;SDS011;10304;51.074;13.754;2023-04-24T10:49:30;1.75;;;0.70;;
20290;SDS011;10304;51.074;13.754;2023-04-24T10:52:04;2.30;;;0.80;;
20290;SDS011;10304;51.074;13.754;2023-04-24T10:54:35;3.80;;;1.30;;
20290;SDS011;10304;51.074;13.754;2023-04-24T11:02:45;0.77;;;0.60;;
20290;SDS011;10304;51.074;13.754;2023-04-24T11:05:16;0.55;;;0.52;;
20290;SDS011;10304;51.074;13.754;2023-04-24T11:10:54;2.75;;;0.60;;
20290;SDS011;10304;51.074;13.754;2023-04-24T11:13:21;0.98;;;0.55;;
20290;SDS011;10304;51.074;13.754;2023-04-24T11:21:46;1.70;;;0.80;;
20290;SDS011;10304;51.074;13.754;2023-04-24T11:27:14;1.10;;;0.60;;
20290;SDS011;10304;51.074;13.754;2023-04-24T11:29:49;0.93;;;0.50;;
20290;SDS011;10304;51.074;13.754;2023-04-24T11:35:00;0.60;;;0.60;;
20290;SDS011;10304;51.074;13.754;2023-04-24T11:37:29;1.20;;;0.65;;
20290;SDS011;10304;51.074;13.754;2023-04-24T11:40:00;1.70;;;0.60;;
20290;SDS011;10304;51.074;13.754;2023-04-24T11:42:28;1.50;;;0.50;;
20290;SDS011;10304;51.074;13.754;2023-04-24T11:44:59;4.70;;;0.80;;
20290;SDS011;10304;51.074;13.754;2023-04-24T11:47:31;0.60;;;0.60;;
20290;SDS011;10304;51.074;13.754;2023-04-24T11:50:00;1.35;;;0.70;;
20290;SDS011;10304;51.074;13.754;2023-04-24T11:52:28;1.50;;;0.60;;
20290;SDS011;10304;51.074;13.754;2023-04-24T11:54:56;1.15;;;0.60;;
20290;SDS011;10304;51.074;13.754;2023-04-24T11:57:24;0.75;;;0.52;;
20290;SDS011;10304;51.074;13.754;2023-04-24T11:59:55;0.60;;;0.55;;
20290;SDS011;10304;51.074;13.754;2023-04-24T12:04:53;0.98;;;0.60;;
20290;SDS011;10304;51.074;13.754;2023-04-24T12:07:21;1.92;;;0.77;;
20290;SDS011;10304;51.074;13.754;2023-04-24T12:09:57;1.05;;;0.65;;
20290;SDS011;10304;51.074;13.754;2023-04-24T12:12:26;1.60;;;0.70;;
20290;SDS011;10304;51.074;13.754;2023-04-24T12:14:56;4.00;;;0.70;;
20290;SDS011;10304;51.074;13.754;2023-04-24T12:17:25;1.88;;;0.68;;
20290;SDS011;10304;51.074;13.754;2023-04-24T12:19:58;3.13;;;1.58;;
20290;SDS011;10304;51.074;13.754;2023-04-24T12:25:27;3.17;;;0.95;;
20290;SDS011;10304;51.074;13.754;2023-04-24T12:30:31;2.35;;;0.70;;
20290;SDS011;10304;51.074;13.754;2023-04-24T12:32:59;2.83;;;0.93;;
20290;SDS011;10304;51.074;13.754;2023-04-24T12:35:28;2.78;;;0.60;;
20290;SDS011;10304;51.074;13.754;2023-04-24T12:38:12;1.75;;;0.60;;
20290;SDS011;10304;51.074;13.754;2023-04-24T12:40:41;1.98;;;0.75;;
20290;SDS011;10304;51.074;13.754;2023-04-24T12:43:12;0.95;;;0.70;;
20290;SDS011;10304;51.074;13.754;2023-04-24T12:45:41;3.40;;;1.10;;
20290;SDS011;10304;51.074;13.754;2023-04-24T12:48:08;4.55;;;0.93;;
20290;SDS011;10304;51.074;13.754;2023-04-24T12:50:34;3.88;;;0.90;;
20290;SDS011;10304;51.074;13.754;2023-04-24T12:53:01;2.45;;;1.00;;
20290;SDS011;10304;51.074;13.754;2023-04-24T12:55:28;3.08;;;0.80;;
20290;SDS011;10304;51.074;13.754;2023-04-24T12:57:55;3.47;;;1.00;;
20290;SDS011;10304;51.074;13.754;2023-04-24T13:00:22;1.00;;;0.73;;
20290;SDS011;10304;51.074;13.754;2023-04-24T13:02:48;0.80;;;0.75;;
20290;SDS011;10304;51.074;13.754;2023-04-24T13:05:15;2.10;;;0.90;;
20290;SDS011;10304;51.074;13.754;2023-04-24T13:07:42;2.65;;;0.90;;
20290;SDS011;10304;51.074;13.754;2023-04-24T13:10:09;1.73;;;0.80;;
20290;SDS011;10304;51.074;13.754;2023-04-24T13:12:36;1.38;;;0.90;;
20290;SDS011;10304;51.074;13.754;2023-04-24T13:15:03;3.70;;;0.65;;
20290;SDS011;10304;51.074;13.754;2023-04-24T13:17:30;2.22;;;0.90;;
20290;SDS011;10304;51.074;13.754;2023-04-24T13:19:57;1.20;;;0.77;;
20290;SDS011;10304;51.074;13.754;2023-04-24T13:22:24;4.35;;;1.00;;
20290;SDS011;10304;51.074;13.754;2023-04-24T13:24:51;3.10;;;1.00;;
20290;SDS011;10304;51.074;13.754;2023-04-24T13:27:17;3.50;;;1.02;;
20290;SDS011;10304;51.074;13.754;2023-04-24T13:29:44;2.60;;;1.02;;
20290;SDS011;10304;51.074;13.754;2023-04-24T13:32:11;1.15;;;0.88;;
20290;SDS011;10304;51.074;13.754;2023-04-24T13:34:38;3.53;;;1.15;;
20290;SDS011;10304;51.074;13.754;2023-04-24T13:37:05;1.73;;;1.15;;
20290;SDS011;10304;51.074;13.754;2023-04-24T13:39:34;2.47;;;0.85;;
20290;SDS011;10304;51.074;13.754;2023-04-24T13:42:01;1.98;;;1.02;;
20290;SDS011;10304;51.074;13.754;2023-04-24T13:44:30;1.08;;;0.85;;
20290;SDS011;10304;51.074;13.754;2023-04-24T13:46:57;2.10;;;0.95;;
20290;SDS011;10304;51.074;13.754;2023-04-24T13:49:24;2.22;;;0.80;;
20290;SDS011;10304;51.074;13.754;2023-04-24T13:51:52;3.20;;;1.10;;
20290;SDS011;10304;51.074;13.754;2023-04-24T13:54:20;7.78;;;1.70;;
20290;SDS011;10304;51.074;13.754;2023-04-24T13:56:47;9.32;;;1.10;;
20290;SDS011;10304;51.074;13.754;2023-04-24T13:59:13;3.33;;;1.05;;
20290;SDS011;10304;51.074;13.754;2023-04-24T14:01:40;1.92;;;1.05;;
20290;SDS011;10304;51.074;13.754;2023-04-24T14:04:07;3.35;;;0.98;;
20290;SDS011;10304;51.074;13.754;2023-04-24T14:06:34;2.30;;;0.82;;
20290;SDS011;10304;51.074;13.754;2023-04-24T14:09:01;0.95;;;0.95;;
20290;SDS011;10304;51.074;13.754;2023-04-24T14:11:27;1.65;;;0.80;;
20290;SDS011;10304;51.074;13.754;2023-04-24T14:13:54;1.92;;;0.98;;
20290;SDS011;10304;51.074;13.754;2023-04-24T14:16:22;2.25;;;0.90;;
20290;SDS011;10304;51.074;13.754;2023-04-24T14:18:49;4.63;;;1.23;;
20290;SDS011;10304;51.074;13.754;2023-04-24T14:21:16;1.63;;;1.00;;
20290;SDS011;10304;51.074;13.754;2023-04-24T14:23:42;2.38;;;1.20;;
20290;SDS011;10304;51.074;13.754;2023-04-24T14:26:10;2.17;;;1.13;;
20290;SDS011;10304;51.074;13.754;2023-04-24T14:28:37;2.78;;;1.00;;
20290;SDS011;10304;51.074;13.754;2023-04-24T14:31:04;2.47;;;1.13;;
20290;SDS011;10304;51.074;13.754;2023-04-24T14:33:31;2.80;;;1.20;;
20290;SDS011;10304;51.074;13.754;2023-04-24T14:35:58;2.45;;;1.10;;
20290;SDS011;10304;51.074;13.754;2023-04-24T14:38:24;2.58;;;1.30;;
20290;SDS011;10304;51.074;13.754;2023-04-24T14:40:51;4.28;;;1.50;;
20290;SDS011;10304;51.074;13.754;2023-04-24T14:43:33;3.05;;;1.20;;
20290;SDS011;10304;51.074;13.754;2023-04-24T14:46:01;3.92;;;1.30;;
20290;SDS011;10304;51.074;13.754;2023-04-24T14:48:29;4.07;;;1.45;;
20290;SDS011;10304;51.074;13.754;2023-04-24T14:50:56;3.78;;;1.30;;
20290;SDS011;10304;51.074;13.754;2023-04-24T14:53:23;3.22;;;1.08;;
20290;SDS011;10304;51.074;13.754;2023-04-24T14:55:50;1.45;;;1.10;;
20290;SDS011;10304;51.074;13.754;2023-04-24T14:58:16;4.25;;;1.08;;
20290;SDS011;10304;51.074;13.754;2023-04-24T15:00:43;2.75;;;0.93;;
20290;SDS011;10304;51.074;13.754;2023-04-24T15:03:10;1.42;;;1.08;;
20290;SDS011;10304;51.074;13.754;2023-04-24T15:05:37;3.17;;;1.00;;